Tiempo atmosférico en la estación meteorológica de Ibias, San Antolin, Asturias (762 m.)



Fecha
DESCASC
Temp. máxima en grados centígrados (hora)
DESCASC
Temp. mínima en grados centígrados (hora)
DESCASC
Temp. media en grados centígrados
DESCASC
Racha de viento máxima en m/sg (hora)
DESCASC
Velocidad máxima media en intervalos de 10 minutos(hora)
DESCASC
Precipitaciones diarias en mm
DESCASC
Precipitaciones de 00:00 a 06:00 en mm
DESCASC
Precipitaciones de 06:00 a 12:00 en mm
DESCASC
Precipitaciones de 12:00 a 18:00 en mm
DESCASC
Precipitaciones de 18:00 a 24:00 en mm
DESCASC
18-11-2019 5.3 (15:50) 1.2 (23:59) 3.3 6.39 (22:00) 5 (05:40) 2.6 1.8 0.8 0 0
17-11-2019 5.7 (06:40) 3 (23:20) 4.3 12.78 (07:30) 7.5 (08:00) 13.6 0.8 3.6 2.2 7
16-11-2019 4.3 (15:00) -0.3 (01:40) 2 9.72 (17:40) 6.11 (13:30) 25.4 1 8.2 15.8 0.4
15-11-2019 1.5 (00:50) -0.1 (11:00) 0.7 9.72 (00:20) 6.39 (00:10) 40.8 12 12.8 12.6 3.4
14-11-2019 5.7 (00:00) 0.3 (00:00) 3 15.56 (10:10) 10.28 (11:10) 39.2 6.2 4.6 10.6 17.8
13-11-2019 11.5 (00:20) 5.7 (00:00) 8.6 17.5 (19:40) 11.67 (19:40) 11.6 6 0.2 0.4 5
12-11-2019 11.3 (23:50) 4.6 (00:00) 8 17.78 (16:00) 9.44 (15:20) 26.2 0 1.8 9.4 15
11-11-2019 8.1 (10:40) 3.7 (00:10) 5.9 7.5 (13:50) 2.78 (09:10) 5 2.4 2.6 0 0
10-11-2019 4.6 (12:40) 3.2 (00:00) 3.9 10.83 (13:30) 6.67 (02:50) 26.6 4 6.6 9.4 6.6
09-11-2019 10.2 (13:10) 4 (00:00) 7.1 13.89 (10:00) 8.61 (10:00) 7.8 1.6 1.6 0.6 4
08-11-2019 -- (--) -- (--) -- -- (--) -- (--) -- -- -- 4 0.8
07-11-2019 -- (--) -- (--) -- -- (--) -- (--) -- 1.8 5 -- --
06-11-2019 -- (--) -- (--) -- -- (--) -- (--) -- -- -- 0.8 4.2
05-11-2019 -- (--) -- (--) -- -- (--) -- (--) -- 3.8 10.6 -- --
04-11-2019 11.5 (00:00) 4.5 (00:00) 8 24.17 (06:30) 14.44 (05:50) 16 4.2 4.4 2.6 4.8
03-11-2019 11.9 (21:50) 5.9 (00:00) 8.9 30 (02:00) 17.22 (02:00) 16.8 6.8 1.2 2.2 6.6
02-11-2019 13.6 (00:00) 8.8 (00:00) 11.2 20.28 (21:10) 13.89 (22:50) 7.6 1.2 1.4 1.6 3.4
01-11-2019 15.8 (02:00) 13.4 (00:00) 14.6 19.17 (17:50) 11.39 (20:20) 28.4 6.4 5.4 8.4 8.2
31-10-2019 18.3 (13:50) 13.4 (04:30) 15.8 12.22 (19:50) 7.78 (22:00) 3.4 0 0 1.2 2.2
30-10-2019 17.5 (11:10) 14 (00:00) 15.8 12.5 (18:20) 7.22 (18:20) 9 0 0.2 4 4.8
29-10-2019 18.9 (15:00) 12.9 (00:00) 15.9 11.94 (04:30) 7.78 (04:30) 0 0 0 0 0
28-10-2019 20.5 (13:20) 12.4 (00:00) 16.4 11.67 (18:10) 9.72 (18:10) 0 0 0 0 0
27-10-2019 19.2 (13:00) 14.1 (00:00) 16.7 8.06 (15:50) 5.56 (15:40) 0 0 0 0 0
26-10-2019 22.7 (15:50) 14.6 (00:00) 18.7 14.72 (13:00) 7.78 (15:20) 0 0 0 0 0
25-10-2019 19.8 (16:00) 8.3 (00:00) 14 13.06 (16:20) 6.67 (23:20) 0 0 0 0 0
24-10-2019 11.9 (15:40) 6.7 (00:00) 9.3 11.39 (16:40) 6.67 (16:40) 4.4 0 3.8 0.6 0
23-10-2019 9.3 (15:20) 6.3 (00:00) 7.8 11.11 (07:10) 6.67 (07:40) 1 0.8 0.2 0 0
22-10-2019 12.1 (14:40) 2.1 (00:00) 7.1 11.11 (17:20) 7.22 (17:20) 0.4 0 0 0 0.4

Gráficas

Temp. máximas Temp. mínimas Temp. medias Precipitaciones Rachas de viento máximas Velocidades máximas media en intervalos de 10 minutos

Datos horarios

Fecha y hora oficial Temperatura (ºC) Velocidad del viento (km/h) Dirección del viento Racha (km/h) Dirección de racha Precipitación (mm) Presión (hPa) Tendencia (hPa) Humedad (%)
2019-11-20 23:00:00 4.9 19 Sudoeste 34 Oeste 0.6 -- -- 93
2019-11-20 22:00:00 5.5 15 Sur 25 Sur 0 -- -- 87
2019-11-20 21:00:00 5.1 6 Sudoeste 33 Sudoeste 0.8 -- -- 94
2019-11-20 20:00:00 5.5 10 Sur 24 Sur 0 -- -- 89
2019-11-20 19:00:00 4.8 13 Sudoeste 38 Sudoeste 0.2 -- -- 95
2019-11-20 18:00:00 5.4 24 Sudoeste 39 Oeste 0 -- -- 92
2019-11-20 17:00:00 6.4 34 Sudoeste 47 Sudoeste 0.4 -- -- 87
2019-11-20 16:00:00 8.2 19 Sur 31 Sudeste 0 -- -- 72
2019-11-20 15:00:00 8.8 13 Sur 30 Sudoeste 0 -- -- 72
2019-11-20 14:00:00 8.8 15 Sur 34 Sudoeste 0 -- -- 76
2019-11-20 13:00:00 7.5 15 Sudoeste 29 Sur 0 -- -- 83
2019-11-20 12:00:00 7.5 6 Sudeste 19 Sur 0 -- -- 85
2019-11-20 11:00:00 7.1 10 Sudoeste 24 Sur 0 -- -- 88
2019-11-20 10:00:00 6 5 Sudoeste 13 Sudoeste 0 -- -- 90
2019-11-20 09:00:00 5.5 4 Oeste 12 Sudoeste 0 -- -- 92
2019-11-20 08:00:00 5.4 8 Oeste 13 Oeste 0 -- -- 93
2019-11-20 07:00:00 5.6 4 Sur 12 Sudeste 0 -- -- 90
2019-11-20 06:00:00 5.6 5 Sudoeste 10 Oeste 0 -- -- 93
2019-11-20 05:00:00 5.7 7 Sur 14 Sudeste 0 -- -- 92
2019-11-20 04:00:00 5.3 9 Oeste 15 Sudoeste 0 -- -- 95
2019-11-20 03:00:00 5.4 5 Sudoeste 12 Sur 0 -- -- 93
2019-11-20 02:00:00 5.3 5 Sur 15 Sudoeste 0 -- -- 96
2019-11-20 01:00:00 5.3 12 Oeste 17 Oeste 0 -- -- 98
2019-11-20 00:00:00 5.1 5 Oeste 14 Noroeste 0 -- -- 98
2019-11-19 23:00:00 5.1 4 Este 11 Oeste 0.2 -- -- 99
2019-11-19 22:00:00 5.4 3 Oeste 15 Este 0.2 -- -- 98
2019-11-19 21:00:00 5.2 13 Este 22 Este 2 -- -- 96
2019-11-19 20:00:00 5.6 3 Sudoeste 13 Sudeste 0 -- -- 93
2019-11-19 19:00:00 5.9 11 Sudeste 22 Sudeste 0.4 -- -- 90
2019-11-19 18:00:00 6.5 3 Este 14 Sudeste 0.4 -- -- 88
2019-11-19 17:00:00 7.4 10 Sudeste 13 Sudeste 0 -- -- 74
2019-11-19 16:00:00 7.7 3 Sudoeste 8 Sudoeste 0 -- -- 79
2019-11-19 15:00:00 7.4 3 Sur 14 Este 0 -- -- 79
2019-11-19 14:00:00 6.3 5 Sur 9 Este 0 -- -- 82
2019-11-19 13:00:00 5.7 5 Oeste 13 Oeste 0 -- -- 87
2019-11-19 12:00:00 5.5 8 Oeste 12 Oeste 0 -- -- 85
2019-11-19 11:00:00 4.5 5 Sudoeste 11 Oeste 0 -- -- 89
2019-11-19 10:00:00 3.8 4 Sudoeste 12 Sudeste 0 -- -- 82
2019-11-19 09:00:00 2.9 10 Sudeste 16 Sudeste 0 -- -- 79
2019-11-19 08:00:00 1.8 4 Sur 10 Sudeste 0 -- -- 88
2019-11-19 07:00:00 1.6 0 Calma 13 Oeste 0 -- -- 89
2019-11-19 06:00:00 1.5 3 Sur 13 Este 0 -- -- 91
2019-11-19 05:00:00 0.9 6 Oeste 10 Este 0 -- -- 95
2019-11-19 04:00:00 0.9 0 Calma 8 Este 0 -- -- 98
2019-11-19 03:00:00 1 4 Sudeste 14 Oeste 0 -- -- 99
2019-11-19 02:00:00 0.5 12 Oeste 19 Oeste 0 -- -- 97
2019-11-19 01:00:00 2.1 12 Este 18 Sudeste 0 -- -- 98
2019-11-19 00:00:00 1.2 6 Oeste 11 Oeste 0 -- -- 98
2019-11-18 23:00:00 2.4 5 Oeste 20 Sudeste 0 -- -- 96
2019-11-18 22:00:00 4.2 14 Sudeste 23 Sudeste 0 -- -- 87
2019-11-18 21:00:00 3.6 8 Este 12 Este 0 -- -- 96
2019-11-18 20:00:00 3.9 0 Calma 11 Oeste 0 -- -- 96
2019-11-18 19:00:00 4.1 4 Este 14 Este 0 -- -- 95
2019-11-18 18:00:00 4.1 9 Sudeste 14 Este 0 -- -- 96
2019-11-18 17:00:00 5 4 Este 8 Este 0 -- -- 97
2019-11-18 16:00:00 5.2 5 Sudeste 9 Este 0 -- -- 98
2019-11-18 15:00:00 4.9 5 Nordeste 8 Nordeste 0 -- -- 100
2019-11-18 14:00:00 4 3 Este 10 Nordeste 0 -- -- 100
2019-11-18 13:00:00 3.8 4 Nordeste 9 Nordeste 0 -- -- 100
2019-11-18 12:00:00 3.2 5 Este 10 Oeste 0.2 -- -- 100
2019-11-18 11:00:00 3.2 2 Sur 10 Sur 0 -- -- 100
2019-11-18 10:00:00 2.8 0 Calma 9 Oeste 0 -- -- 100
2019-11-18 09:00:00 2.4 9 Oeste 11 Oeste 0.4 -- -- 100
2019-11-18 08:00:00 2.3 5 Oeste 15 Oeste 0.2 -- -- 100
2019-11-18 07:00:00 2.5 2 Noroeste 14 Oeste 0 -- -- 100
2019-11-18 06:00:00 2.4 12 Oeste 21 Oeste 0.4 -- -- 100
2019-11-18 05:00:00 2.8 6 Oeste 9 Norte 0.8 -- -- 100
2019-11-18 04:00:00 2.9 6 Sudoeste 13 Noroeste 0.2 -- -- 100
2019-11-18 03:00:00 2.9 3 Oeste 9 Oeste 0 -- -- 100
2019-11-18 02:00:00 2.7 8 Oeste 10 Oeste 0 -- -- 99
2019-11-18 01:00:00 3 3 Oeste 13 Noroeste 0.4 -- -- 99
2019-11-18 00:00:00 3 7 Noroeste 14 Noroeste 0.4 -- -- 99
2019-11-17 23:00:00 3.2 7 Noroeste 26 Nordeste 1 -- -- 99
2019-11-17 22:00:00 3.6 5 Noroeste 9 Oeste 0.8 -- -- 100
2019-11-17 21:00:00 3.5 9 Oeste 20 Oeste 1 -- -- 99
2019-11-17 20:00:00 3.7 10 Sudoeste 27 Oeste 3 -- -- 98
2019-11-17 19:00:00 4.1 24 Sudoeste 40 Sudoeste 0.8 -- -- 96
2019-11-17 18:00:00 4.3 19 Sudoeste 32 Oeste 0.4 -- -- 96
2019-11-17 17:00:00 4.2 18 Sudoeste 24 Oeste 0.4 -- -- 95
2019-11-17 16:00:00 4.7 18 Sudoeste 27 Sudoeste 0 -- -- 91
2019-11-17 15:00:00 4.6 22 Sudoeste 31 Sudoeste 0.8 -- -- 95
2019-11-17 14:00:00 5.3 7 Sudoeste 30 Oeste 0.2 -- -- 96
2019-11-17 13:00:00 4.9 12 Oeste 29 Oeste 0.4 -- -- 97
2019-11-17 12:00:00 5 18 Sudoeste 31 Sudoeste 0.2 -- -- 98
2019-11-17 11:00:00 4.7 15 Sudoeste 39 Oeste 1.2 -- -- 100
2019-11-17 10:00:00 5.3 21 Sudoeste 33 Sudoeste 0.2 -- -- 100
2019-11-17 09:00:00 5.2 21 Sudoeste 36 Sudoeste 0.2 -- -- 99
2019-11-17 08:00:00 5.6 27 Sudoeste 46 Oeste 0.8 -- -- 99
2019-11-17 07:00:00 5.6 13 Sudoeste 32 Sudoeste 1 -- -- 100
2019-11-17 06:00:00 5.6 21 Sudoeste 34 Sudoeste 0.6 -- -- 100
2019-11-17 05:00:00 5.1 6 Sudeste 28 Sudoeste 0 -- -- 100
2019-11-17 04:00:00 4.8 10 Sudoeste 25 Sur 0 -- -- 100
2019-11-17 03:00:00 4.2 3 Este 30 Sudoeste 0 -- -- 100
2019-11-17 02:00:00 4.2 12 Sur 35 Sudoeste 0 -- -- 100
2019-11-17 01:00:00 3.8 3 Este 20 Sudoeste 0.2 -- -- 99
2019-11-17 00:00:00 3.6 5 Sur 31 Sudoeste 0 -- -- 99
2019-11-16 23:00:00 3.5 13 Sudoeste 32 Sudoeste 0 -- -- 100
2019-11-16 22:00:00 2.8 5 Norte 17 Sur 0 -- -- 99
2019-11-16 21:00:00 2.8 5 Sur 24 Sudoeste 0.2 -- -- 98
2019-11-16 20:00:00 2.9 7 Sudoeste 22 Oeste 0.2 -- -- 96
2019-11-16 19:00:00 3.1 9 Sudoeste 28 Sudoeste 0 -- -- 93
2019-11-16 18:00:00 3.3 19 Sudoeste 35 Sudoeste 0.4 -- -- 92
2019-11-16 17:00:00 3 11 Oeste 30 Sudoeste 1.8 -- -- 95
2019-11-16 16:00:00 3.3 15 Sudoeste 31 Sudoeste 3.2 -- -- 92
2019-11-16 15:00:00 4.3 15 Sudoeste 30 Sudoeste 3.2 -- -- 89
2019-11-16 14:00:00 3.4 21 Sudoeste 31 Sudoeste 3.6 -- -- 94
2019-11-16 13:00:00 2.8 17 Sudoeste 29 Sudoeste 3.6 -- -- 97
2019-11-16 12:00:00 2.7 18 Sudoeste 24 Sudoeste 3.6 -- -- 100
2019-11-16 11:00:00 2.4 14 Sudoeste 21 Sudoeste 2.6 -- -- 100
2019-11-16 10:00:00 1.7 0 Calma 6 Oeste 1 -- -- 100
2019-11-16 09:00:00 0.7 0 Calma -- -- 0.4 -- -- 100
2019-11-16 08:00:00 0.4 0 Calma -- -- 0.4 -- -- 100
2019-11-16 07:00:00 0.5 0 Calma -- -- 0.2 -- -- 100
2019-11-16 06:00:00 0.4 0 Calma -- -- 0.4 -- -- 100
2019-11-16 05:00:00 0.3 0 Calma -- -- 0 -- -- 100
2019-11-16 04:00:00 0.1 0 Calma -- -- 0.2 -- -- 100
2019-11-16 03:00:00 0 0 Calma -- -- 0 -- -- 100
2019-11-16 02:00:00 -0.3 0 Calma -- -- 0.2 -- -- 100
2019-11-16 01:00:00 -0.1 0 Calma -- -- 0.2 -- -- 100
2019-11-16 00:00:00 0.1 0 Calma -- -- 0.4 -- -- 100
2019-11-15 23:00:00 0.6 0 Calma -- -- 1 -- -- 100
2019-11-15 22:00:00 0.4 0 Calma -- -- 1 -- -- 100
2019-11-15 21:00:00 0.5 0 Calma -- -- 0.8 -- -- 100
2019-11-15 20:00:00 0.1 0 Calma -- -- 0.2 -- -- 100
2019-11-15 19:00:00 0.1 0 Calma -- -- 0 -- -- 100
2019-11-15 18:00:00 0.1 0 Calma 2 Oeste 0 -- -- 100
2019-11-15 17:00:00 0.2 7 Oeste 17 Oeste 0.4 -- -- 100
2019-11-15 16:00:00 0.2 10 Oeste 17 Oeste 3.2 -- -- 100
2019-11-15 15:00:00 0.9 15 Oeste 21 Oeste 5.2 -- -- 100
2019-11-15 14:00:00 0.5 17 Oeste 21 Oeste 1.4 -- -- 100
2019-11-15 13:00:00 0.2 8 Oeste 15 Oeste 2.4 -- -- 100
2019-11-15 12:00:00 0.2 10 Oeste 16 Oeste 2.4 -- -- 100
2019-11-15 11:00:00 -0.1 16 Oeste 28 Oeste 2.4 -- -- 100
2019-11-15 10:00:00 0.4 15 Oeste 20 Oeste 1.4 -- -- 100
2019-11-15 09:00:00 0.3 9 Oeste 12 Oeste 1.6 -- -- 100
2019-11-15 08:00:00 0.1 6 Oeste 12 Norte 3.8 -- -- 100
2019-11-15 07:00:00 0.1 8 Oeste 14 Oeste 1.2 -- -- 100
2019-11-15 06:00:00 0 10 Oeste 17 Oeste 3.6 -- -- 100
2019-11-15 05:00:00 0 10 Oeste 22 Sudoeste 0.8 -- -- 100
2019-11-15 04:00:00 0.1 12 Oeste 20 Oeste 1.6 -- -- 100
2019-11-15 03:00:00 0.1 15 Oeste 18 Oeste 2 -- -- 100
2019-11-15 02:00:00 0.1 10 Oeste 29 Oeste 1.8 -- -- 100
2019-11-15 01:00:00 1.2 17 Oeste 35 Oeste 2.2 -- -- 100
2019-11-15 00:00:00 1.4 22 Oeste 33 Oeste 1.8 -- -- 100
2019-11-14 23:00:00 1.1 16 Oeste 28 Noroeste 2.8 -- -- 99
2019-11-14 22:00:00 1.5 17 Oeste 36 Oeste 4.6 -- -- 100
2019-11-14 21:00:00 1.9 26 Oeste 48 Oeste 3.4 -- -- 99
2019-11-14 20:00:00 2.8 24 Oeste 44 Oeste 2 -- -- 99
2019-11-14 19:00:00 2.2 22 Oeste 40 Oeste 3.2 -- -- 99
2019-11-14 18:00:00 2.8 18 Oeste 50 Noroeste 1.8 -- -- 98
2019-11-14 17:00:00 2.8 12 Oeste 32 Noroeste 2.4 -- -- 99
2019-11-14 16:00:00 3.2 15 Noroeste 44 Norte 0 -- -- 94
2019-11-14 15:00:00 2.4 11 Oeste 26 Oeste 2.2 -- -- 100
2019-11-14 14:00:00 2 24 Oeste 42 Oeste 1.6 -- -- 99
2019-11-14 13:00:00 0.8 26 Sudoeste 41 Sudoeste 2.6 -- -- 98
2019-11-14 12:00:00 1 19 Sudoeste 50 Sudoeste 0.8 -- -- 98
2019-11-14 11:00:00 0.6 25 Sudoeste 56 Sudoeste 1 -- -- 98
2019-11-14 10:00:00 0.8 33 Sudoeste 52 Sudoeste 0.6 -- -- 96
2019-11-14 09:00:00 1 32 Sudoeste 46 Sudoeste 0.6 -- -- 97
2019-11-14 08:00:00 0.6 12 Sudoeste 21 Sur 0.6 -- -- 98
2019-11-14 07:00:00 0.3 10 Sudoeste 28 Sudoeste 1 -- -- 99
2019-11-14 06:00:00 0.6 19 Sudoeste 26 Sudoeste 1.2 -- -- 98
2019-11-14 05:00:00 1.4 4 Norte 35 Oeste 0 -- -- 96
2019-11-14 04:00:00 1.5 19 Oeste 38 Oeste 1.2 -- -- 97
2019-11-14 03:00:00 2.5 18 Oeste 43 Oeste 0.2 -- -- 96
2019-11-14 02:00:00 2.6 21 Oeste 48 Oeste 2.6 -- -- 97
2019-11-14 01:00:00 4.7 26 Oeste 54 Oeste 1 -- -- 96
2019-11-14 00:00:00 5.7 30 Oeste 62 Oeste 2 -- -- 96
2019-11-13 23:00:00 6.5 32 Oeste 61 Oeste 2.2 -- -- 96
2019-11-13 22:00:00 6.4 33 Sudoeste 59 Sudoeste 0.8 -- -- 95
2019-11-13 21:00:00 6.8 31 Sudoeste 52 Sudoeste 0 -- -- 93
2019-11-13 20:00:00 6.9 37 Sudoeste 63 Sudoeste 0 -- -- 90
2019-11-13 19:00:00 7.7 28 Sudoeste 50 Sudoeste 0 -- -- 87
2019-11-13 18:00:00 7.6 35 Sudoeste 52 Sudoeste 0 -- -- 91
2019-11-13 17:00:00 7.7 28 Sudoeste 41 Sudoeste 0 -- -- 90
2019-11-13 16:00:00 7.8 17 Sudoeste 38 Sudoeste 0 -- -- 93
2019-11-13 15:00:00 7.9 13 Sudoeste 31 Oeste 0.2 -- -- 95
2019-11-13 14:00:00 8 15 Sudoeste 24 Sudoeste 0 -- -- 97
2019-11-13 13:00:00 8.4 17 Oeste 26 Oeste 0.2 -- -- 98
2019-11-13 12:00:00 8.2 9 Oeste 14 Oeste 0 -- -- 99
2019-11-13 11:00:00 8 2 Nordeste 12 Noroeste 0 -- -- 100
2019-11-13 10:00:00 7.3 5 Noroeste 18 Noroeste 0 -- -- 100
2019-11-13 09:00:00 7.1 7 Noroeste 22 Noroeste 0 -- -- 100
2019-11-13 08:00:00 7.3 9 Noroeste 23 Norte 0 -- -- 100
2019-11-13 07:00:00 7.7 10 Noroeste 23 Noroeste 0.2 -- -- 100
2019-11-13 06:00:00 7.9 10 Noroeste 23 Noroeste 0 -- -- 100
2019-11-13 05:00:00 8.1 9 Noroeste 25 Norte 0 -- -- 100
2019-11-13 04:00:00 8.6 14 Noroeste 27 Noroeste 0.2 -- -- 99
2019-11-13 03:00:00 9.1 10 Oeste 20 Noroeste 0 -- -- 100
2019-11-13 02:00:00 10.5 9 Noroeste 26 Oeste 3.4 -- -- 99
2019-11-13 01:00:00 11.1 12 Oeste 50 Oeste 2.4 -- -- 99
2019-11-13 00:00:00 11.3 27 Sudoeste 51 Oeste 2.6 -- -- 99
2019-11-12 23:00:00 11 20 Sudoeste 44 Sudoeste 3 -- -- 99
2019-11-12 22:00:00 10.8 19 Sudoeste 34 Sudoeste 1.2 -- -- 99
2019-11-12 21:00:00 10.3 14 Sudoeste 27 Sudoeste 1.2 -- -- 99
2019-11-12 20:00:00 9.9 8 Sudoeste 39 Sudoeste 2 -- -- 99
2019-11-12 19:00:00 9.4 23 Sudoeste 35 Sudoeste 5 -- -- 99
2019-11-12 18:00:00 9 17 Sudoeste 48 Sudoeste 4 -- -- 99
2019-11-12 17:00:00 8.6 23 Sudoeste 54 Sudoeste 3.4 -- -- 98
2019-11-12 16:00:00 8.5 31 Sudoeste 64 Sudoeste 0.6 -- -- 95
2019-11-12 15:00:00 7.9 27 Sudoeste 50 Sudoeste 0.6 -- -- 96
2019-11-12 14:00:00 7.3 22 Sudoeste 48 Sudoeste 0.4 -- -- 96
2019-11-12 13:00:00 6.7 21 Sudoeste 38 Sudoeste 0.4 -- -- 96
2019-11-12 12:00:00 6.5 21 Sudoeste 37 Sudoeste 0.4 -- -- 95
2019-11-12 11:00:00 6 22 Sudoeste 36 Sudoeste 0 -- -- 98
2019-11-12 10:00:00 5.4 17 Sudoeste 27 Sudoeste 0 -- -- 98
2019-11-12 09:00:00 5 13 Sudoeste 27 Sudoeste 0.4 -- -- 98
2019-11-12 08:00:00 4.8 17 Sudoeste 26 Sudoeste 0.8 -- -- 98
2019-11-12 07:00:00 4.9 14 Sudoeste 26 Sudoeste 0.2 -- -- 96
2019-11-12 06:00:00 4.9 15 Sudoeste 21 Sudoeste 0 -- -- 96
2019-11-12 05:00:00 4.9 5 Sudoeste 15 Sudoeste 0 -- -- 95
2019-11-12 04:00:00 4.8 12 Sudoeste 19 Sudoeste 0 -- -- 95
2019-11-12 03:00:00 4.7 3 Sudoeste 19 Sudoeste 0 -- -- 94
2019-11-12 02:00:00 4.7 11 Sudoeste 16 Sudoeste 0 -- -- 93
2019-11-12 01:00:00 4.8 0 Calma 10 Sudoeste 0 -- -- 92
2019-11-12 00:00:00 4.6 6 Sudoeste 10 Sudoeste 0 -- -- 93
2019-11-11 23:00:00 4.3 5 Oeste 6 Oeste 0 -- -- 93
2019-11-11 22:00:00 4.6 3 Oeste 9 Oeste 0 -- -- 93
2019-11-11 21:00:00 4.4 5 Oeste 8 Oeste 0 -- -- 92
2019-11-11 20:00:00 4.3 4 Oeste 13 Norte 0 -- -- 92
2019-11-11 19:00:00 5.1 6 Norte 17 Norte 0 -- -- 92
2019-11-11 18:00:00 6.3 6 Norte 16 Noroeste 0 -- -- 91
2019-11-11 17:00:00 7.6 6 Noroeste 13 Norte 0 -- -- 87
2019-11-11 16:00:00 7.3 6 Noroeste 17 Noroeste 0 -- -- 90
2019-11-11 15:00:00 7.3 6 Noroeste 17 Noroeste 0 -- -- 91
2019-11-11 14:00:00 7 7 Norte 27 Norte 0 -- -- 90
2019-11-11 13:00:00 7.5 6 Noroeste 14 Noroeste 0 -- -- 98
2019-11-11 12:00:00 7.1 5 Sudeste 19 Norte 0 -- -- 100
2019-11-11 11:00:00 7.8 4 Norte 23 Noroeste 0 -- -- 100
2019-11-11 10:00:00 7.7 5 Noroeste 14 Oeste 0.8 -- -- 100
2019-11-11 09:00:00 7.5 6 Oeste 14 Oeste 0.4 -- -- 100
2019-11-11 08:00:00 7.2 4 Norte 7 Noroeste 0.6 -- -- 100
2019-11-11 07:00:00 7.2 2 Sur 11 Sudeste 0.8 -- -- 100
2019-11-11 06:00:00 6.8 4 Sudeste 12 Este 1 -- -- 100
2019-11-11 05:00:00 5.7 3 Nordeste 9 Este 0.6 -- -- 100
2019-11-11 04:00:00 5.1 3 Sur 11 Oeste 0.2 -- -- 100
2019-11-11 03:00:00 4.7 2 Sur 12 Sudeste 0.4 -- -- 100
2019-11-11 02:00:00 4.3 5 Sudeste 13 Este 0 -- -- 100
2019-11-11 01:00:00 4.2 0 Calma 12 Este 0.2 -- -- 100
2019-11-11 00:00:00 3.8 2 Nordeste 9 Noroeste 0.6 -- -- 99
2019-11-10 23:00:00 3.8 0 Calma 8 Oeste 1 -- -- 99
2019-11-10 22:00:00 3.8 2 Sudoeste 9 Noroeste 0.8 -- -- 98
2019-11-10 21:00:00 4.1 7 Sudeste 17 Sudeste 0.6 -- -- 96
2019-11-10 20:00:00 3.8 12 Este 15 Sudeste 1.6 -- -- 100
2019-11-10 19:00:00 3.9 2 Sudoeste 15 Oeste 2 -- -- 100
2019-11-10 18:00:00 4 11 Oeste 20 Oeste 1 -- -- 100
2019-11-10 17:00:00 4.5 8 Oeste 15 Oeste 1.8 -- -- 100
2019-11-10 16:00:00 4.3 8 Oeste 18 Oeste 2 -- -- 99
2019-11-10 15:00:00 4.4 9 Oeste 23 Noroeste 1.8 -- -- 99
2019-11-10 14:00:00 4.3 12 Oeste 39 Oeste 1.2 -- -- 99
2019-11-10 13:00:00 4.6 17 Oeste 24 Oeste 1.6 -- -- 99
2019-11-10 12:00:00 4.3 10 Oeste 18 Oeste 3.2 -- -- 99
2019-11-10 11:00:00 4.3 12 Oeste 28 Oeste 0.4 -- -- 99
2019-11-10 10:00:00 4.1 21 Oeste 32 Oeste 1.6 -- -- 99
2019-11-10 09:00:00 3.8 18 Oeste 30 Oeste 0.6 -- -- 99
2019-11-10 08:00:00 3.8 19 Oeste 28 Oeste 0.6 -- -- 99
2019-11-10 07:00:00 3.8 15 Oeste 23 Oeste 0.2 -- -- 99
2019-11-10 06:00:00 3.4 11 Oeste 21 Oeste 0.8 -- -- 99
2019-11-10 05:00:00 3.4 16 Oeste 33 Oeste 1.6 -- -- 98
2019-11-10 04:00:00 3.7 13 Sudoeste 24 Sudoeste 0.2 -- -- 97
2019-11-10 03:00:00 3.6 23 Oeste 37 Sudoeste 0.2 -- -- 95
2019-11-10 02:00:00 3.7 23 Oeste 34 Oeste 0.4 -- -- 95
2019-11-10 01:00:00 3.9 17 Oeste 23 Oeste 0.8 -- -- 97
2019-11-10 00:00:00 4 7 Oeste 27 Noroeste 1.2 -- -- 96
2019-11-09 23:00:00 4.6 9 Oeste 17 Noroeste 0 -- -- 95
2019-11-09 22:00:00 4.9 8 Noroeste 27 Noroeste 0.2 -- -- 96
2019-11-09 21:00:00 5.3 13 Oeste 39 Oeste 0.4 -- -- 95
2019-11-09 20:00:00 5.8 22 Oeste 41 Oeste 2 -- -- 96
2019-11-09 19:00:00 6.4 14 Oeste 39 Oeste 0.2 -- -- 92
2019-11-09 18:00:00 6.8 23 Oeste 46 Sudoeste 0.6 -- -- 93
2019-11-09 17:00:00 7.8 19 Sudoeste 29 Sudoeste 0 -- -- 87
2019-11-09 16:00:00 7.9 26 Oeste 39 Oeste 0 -- -- 90
2019-11-09 15:00:00 9.6 18 Oeste 45 Oeste 0 -- -- 79
2019-11-09 14:00:00 10.1 19 Oeste 36 Oeste 0 -- -- 85
2019-11-09 13:00:00 9.8 28 Oeste 42 Oeste 0 -- -- 88
2019-11-09 12:00:00 9.2 17 Sudoeste 39 Oeste 0 -- -- 93
2019-11-09 11:00:00 8.5 17 Sudoeste 48 Sudoeste 0 -- -- 96
2019-11-09 10:00:00 7.5 31 Sudoeste 50 Sudoeste 0.2 -- -- 98
2019-11-09 09:00:00 6.4 14 Sudoeste 33 Sur 0.4 -- -- 98
2019-11-09 08:00:00 5.4 4 Sudeste 25 Sudeste 0.6 -- -- 99
2019-11-09 07:00:00 4.8 6 Sudeste 18 Sudeste 0.4 -- -- 97
2019-11-09 06:00:00 4.7 5 Sudeste 19 Sudoeste 0.8 -- -- 96
2019-11-09 05:00:00 5 11 Sudoeste 25 Sur 0.6 -- -- 94
2019-11-09 04:00:00 5.2 17 Sudoeste 36 Sudoeste 0 -- -- 94
2019-11-09 03:00:00 5 16 Sudoeste 27 Sudoeste 0 -- -- 95
2019-11-09 02:00:00 4.8 18 Sudoeste 30 Sudoeste 0.2 -- -- 97
2019-11-09 01:00:00 4.6 19 Sudoeste 25 Sudoeste 0 -- -- 98
2019-11-09 00:00:00 4.6 14 Sudoeste 22 Sudoeste 0 -- -- 97
2019-11-08 23:00:00 4.7 13 Sudoeste 21 Sudoeste 0 -- -- 97
2019-11-08 22:00:00 4.4 12 Sudoeste 16 Sudoeste 0 -- -- 97
2019-11-08 21:00:00 4.3 11 Sudoeste 22 Sudoeste 0 -- -- 97
2019-11-08 20:00:00 4.5 12 Oeste 23 Sudoeste 0.8 -- -- 97
2019-11-08 19:00:00 3.9 10 Oeste 22 Oeste 0 -- -- 97
2019-11-08 18:00:00 4.6 13 Oeste 22 Oeste 0.8 -- -- 97
2019-11-08 17:00:00 4.9 9 Noroeste 24 Noroeste 1.2 -- -- 97
2019-11-08 16:00:00 4.8 7 Nordeste 12 Este 0 -- -- 97
2019-11-08 15:00:00 4.6 6 Este 23 Sur 0.2 -- -- 100
2019-11-08 14:00:00 3.3 11 Sudoeste 19 Oeste 1.4 -- -- 100
2019-11-08 13:00:00 2.4 5 Nordeste 16 Norte 0.4 -- -- 100
2019-11-08 12:00:00 1.6 5 Nordeste 15 Oeste 1.2 -- -- 100
2019-11-08 11:00:00 1.1 5 Este 14 Sudoeste 2.2 -- -- 100
2019-11-08 10:00:00 -- -- -- -- -- -- -- -- --
2019-11-08 09:00:00 -- -- -- -- -- -- -- -- --
2019-11-08 08:00:00 -- -- -- -- -- -- -- -- --
2019-11-08 07:00:00 -- -- -- -- -- -- -- -- --
2019-11-08 06:00:00 -- -- -- -- -- -- -- -- --
2019-11-08 05:00:00 -- -- -- -- -- -- -- -- --
2019-11-08 04:00:00 -- -- -- -- -- -- -- -- --
2019-11-08 03:00:00 -- -- -- -- -- -- -- -- --
2019-11-08 02:00:00 -- -- -- -- -- -- -- -- --
2019-11-08 01:00:00 -- -- -- -- -- -- -- -- --
2019-11-08 00:00:00 -- -- -- -- -- -- -- -- --
2019-11-07 23:00:00 -- -- -- -- -- -- -- -- --
2019-11-07 22:00:00 -- -- -- -- -- -- -- -- --
2019-11-07 21:00:00 -- -- -- -- -- -- -- -- --
2019-11-07 20:00:00 -- -- -- -- -- -- -- -- --
2019-11-07 19:00:00 -- -- -- -- -- -- -- -- --
2019-11-07 18:00:00 -- -- -- -- -- -- -- -- --
2019-11-07 17:00:00 -- -- -- -- -- -- -- -- --
2019-11-07 16:00:00 -- -- -- -- -- -- -- -- --
2019-11-07 15:00:00 2.6 25 Sudoeste 47 Oeste 1 -- -- 95
2019-11-07 14:00:00 3 24 Sudoeste 37 Oeste 0.4 -- -- 94
2019-11-07 13:00:00 2.7 22 Sudoeste 44 Oeste 1.4 -- -- 95
2019-11-07 12:00:00 2.9 26 Sudoeste 41 Oeste 1.4 -- -- 96
2019-11-07 11:00:00 3.3 19 Oeste 42 Sudoeste 1.6 -- -- 96
2019-11-07 10:00:00 3.7 11 Sudoeste 36 Oeste 1.4 -- -- 97
2019-11-07 09:00:00 4.2 11 Oeste 30 Oeste 0 -- -- 95
2019-11-07 08:00:00 4.1 22 Oeste 36 Sudoeste 0.4 -- -- 94
2019-11-07 07:00:00 4.3 21 Sudoeste 35 Sudoeste 0.2 -- -- 93
2019-11-07 06:00:00 4.7 17 Sudoeste 32 Oeste 0.2 -- -- 96
2019-11-07 05:00:00 4.9 14 Sudoeste 31 Oeste 0 -- -- 96
2019-11-07 04:00:00 5.2 21 Oeste 35 Oeste 1.2 -- -- 96
2019-11-07 03:00:00 5.5 14 Oeste 27 Sudoeste 0.2 -- -- 94
2019-11-07 02:00:00 5.9 21 Oeste 34 Sudoeste 0 -- -- 94
2019-11-07 01:00:00 6 11 Oeste 33 Noroeste 0.2 -- -- 97
2019-11-07 00:00:00 7.4 19 Oeste 34 Oeste 0.2 -- -- 98
2019-11-06 23:00:00 8.7 10 Oeste 28 Oeste 1.4 -- -- 99
2019-11-06 22:00:00 9.7 18 Oeste 37 Sudoeste 1 -- -- 97
2019-11-06 21:00:00 9.9 21 Sudoeste 41 Sudoeste 0.8 -- -- 98
2019-11-06 20:00:00 9.9 19 Sudoeste 37 Sudoeste 0.6 -- -- 98
2019-11-06 19:00:00 9.6 24 Sudoeste 36 Sudoeste 0.2 -- -- 97
2019-11-06 18:00:00 9.3 22 Sudoeste 42 Sudoeste 0.8 -- -- 96
2019-11-06 17:00:00 9.2 22 Sudoeste 38 Sudoeste 0 -- -- 95
2019-11-06 16:00:00 9.3 19 Sudoeste 37 Sudoeste 0 -- -- 92
2019-11-06 15:00:00 9.3 22 Sudoeste 36 Sudoeste 0 -- -- 93
2019-11-06 14:00:00 8.5 18 Sudoeste 37 Sudoeste 0 -- -- 95
2019-11-06 13:00:00 8 19 Sudoeste 40 Sudoeste 0 -- -- 94
2019-11-06 12:00:00 8.2 21 Sudoeste -- -- -- -- -- 93
2019-11-06 11:00:00 -- -- -- -- -- -- -- -- --
2019-11-06 10:00:00 -- -- -- -- -- -- -- -- --
2019-11-06 09:00:00 -- -- -- -- -- -- -- -- --
2019-11-06 08:00:00 -- -- -- -- -- -- -- -- --
2019-11-06 07:00:00 -- -- -- -- -- -- -- -- --
2019-11-06 06:00:00 -- -- -- -- -- -- -- -- --
2019-11-06 05:00:00 -- -- -- -- -- -- -- -- --
2019-11-06 04:00:00 -- -- -- -- -- -- -- -- --
2019-11-06 03:00:00 -- -- -- -- -- -- -- -- --
2019-11-06 02:00:00 -- -- -- -- -- -- -- -- --
2019-11-06 01:00:00 -- -- -- -- -- -- -- -- --
2019-11-06 00:00:00 -- -- -- -- -- -- -- -- --
2019-11-05 23:00:00 -- -- -- -- -- -- -- -- --
2019-11-05 22:00:00 -- -- -- -- -- -- -- -- --
2019-11-05 21:00:00 -- -- -- -- -- -- -- -- --
2019-11-05 20:00:00 -- -- -- -- -- -- -- -- --
2019-11-05 19:00:00 -- -- -- -- -- -- -- -- --
2019-11-05 18:00:00 -- -- -- -- -- -- -- -- --
2019-11-05 17:00:00 -- -- -- -- -- -- -- -- --
2019-11-05 16:00:00 -- -- -- -- -- -- -- -- --
2019-11-05 15:00:00 -- -- -- -- -- -- -- -- --
2019-11-05 14:00:00 -- -- -- -- -- -- -- -- --
2019-11-05 13:00:00 -- -- -- -- -- -- -- -- --
2019-11-05 12:00:00 7.8 19 Oeste 37 Oeste 0.6 -- -- 96
2019-11-05 11:00:00 7.5 22 Oeste 41 Oeste 0.2 -- -- 98
2019-11-05 10:00:00 7.4 22 Oeste 36 Oeste 1.2 -- -- 98
2019-11-05 09:00:00 6.8 11 Noroeste 38 Oeste 3.8 -- -- 98
2019-11-05 08:00:00 6.6 17 Oeste 38 Sudoeste 3.2 -- -- 97
2019-11-05 07:00:00 6.6 28 Sudoeste 49 Oeste 1.6 -- -- 96
2019-11-05 06:00:00 6.4 25 Oeste 53 Oeste 0.6 -- -- 96
2019-11-05 05:00:00 6.1 29 Sudoeste 49 Sudoeste 1.2 -- -- 96
2019-11-05 04:00:00 5.8 25 Sudoeste 47 Oeste 0.6 -- -- 96
2019-11-05 03:00:00 5.5 19 Sudoeste 42 Oeste 0.8 -- -- 96
2019-11-05 02:00:00 5.2 14 Sudoeste 36 Sudoeste 0.4 -- -- 96
2019-11-05 01:00:00 4.8 25 Sudoeste 49 Sudoeste 0.2 -- -- 95
2019-11-05 00:00:00 4.5 24 Sudoeste 64 Sudoeste 3.2 -- -- 94
2019-11-04 23:00:00 5.8 21 Sudoeste 50 Sudoeste 1 -- -- 93
2019-11-04 22:00:00 6.1 27 Sudoeste 48 Sudoeste 0 -- -- 90
2019-11-04 21:00:00 5.9 29 Sudoeste 50 Sudoeste 0 -- -- 91
2019-11-04 20:00:00 6 28 Sudoeste 43 Sudoeste 0.2 -- -- 91
2019-11-04 19:00:00 6 21 Oeste 48 Sudoeste 0.4 -- -- 90
2019-11-04 18:00:00 6.1 18 Sudoeste 64 Sudoeste 0 -- -- 87
2019-11-04 17:00:00 6.7 22 Sudoeste 60 Oeste 0.4 -- -- 93
2019-11-04 16:00:00 7.3 32 Sudoeste 52 Sudoeste 0.4 -- -- 91
2019-11-04 15:00:00 7.6 24 Sudoeste 60 Oeste 0 -- -- 94
2019-11-04 14:00:00 7.8 33 Sudoeste 55 Oeste 0.6 -- -- 94
2019-11-04 13:00:00 7.7 22 Sudoeste 63 Sudoeste 1.2 -- -- 96
2019-11-04 12:00:00 8.4 33 Oeste 59 Sudoeste 0.8 -- -- 93
2019-11-04 11:00:00 8.7 31 Sudoeste 60 Oeste 0.4 -- -- 94
2019-11-04 10:00:00 8.8 29 Sudoeste 63 Sudoeste 0 -- -- 95
2019-11-04 09:00:00 8.9 24 Sudoeste 85 Oeste 0.2 -- -- 95
2019-11-04 08:00:00 10.1 29 Sudoeste 78 Oeste 0.8 -- -- 99
2019-11-04 07:00:00 10.6 38 Sudoeste 87 Sudoeste 2.2 -- -- 98
2019-11-04 06:00:00 10.9 52 Sudoeste 78 Sudoeste 0.8 -- -- 97
2019-11-04 05:00:00 10.8 44 Sudoeste 64 Sudoeste 0.4 -- -- 97
2019-11-04 04:00:00 10.5 42 Sudoeste 77 Sudoeste 1 -- -- 97
2019-11-04 03:00:00 10.7 42 Sudoeste 70 Sudoeste 1 -- -- 97
2019-11-04 02:00:00 10.9 42 Sudoeste 71 Sudoeste 0.6 -- -- 97
2019-11-04 01:00:00 11 42 Sudoeste 70 Sudoeste 0.4 -- -- 97
2019-11-04 00:00:00 11.5 44 Sudoeste 66 Sudoeste 1.6 -- -- 98
2019-11-03 23:00:00 11.8 25 Sudoeste 58 Sudoeste 1 -- -- 98
2019-11-03 22:00:00 11.9 31 Sudoeste 55 Sudoeste 1 -- -- 98
2019-11-03 21:00:00 11.7 30 Sudoeste 51 Sudoeste 1 -- -- 98
2019-11-03 20:00:00 11.5 26 Sudoeste 62 Sudoeste 0.8 -- -- 98
2019-11-03 19:00:00 11 30 Sudoeste 49 Sudoeste 1.2 -- -- 98
2019-11-03 18:00:00 10.5 28 Sudoeste 49 Sudoeste 0.8 -- -- 98
2019-11-03 17:00:00 9.9 28 Sudoeste 46 Sudoeste 1 -- -- 97
2019-11-03 16:00:00 9.5 25 Sudoeste 44 Sur 0.4 -- -- 96
2019-11-03 15:00:00 9 17 Sudoeste 41 Sudoeste 0 -- -- 95
2019-11-03 14:00:00 8.4 16 Sudoeste 46 Sur 0 -- -- 96
2019-11-03 13:00:00 7.7 22 Sudoeste 41 Sudoeste 0 -- -- 95
2019-11-03 12:00:00 7.5 28 Sudoeste 39 Sudoeste 0 -- -- 95
2019-11-03 11:00:00 7.4 14 Sudoeste 52 Oeste 0 -- -- 94
2019-11-03 10:00:00 6.4 27 Sudoeste 47 Oeste 0.4 -- -- 97
2019-11-03 09:00:00 6.3 18 Sudoeste 36 Sudoeste 0.4 -- -- 95
2019-11-03 08:00:00 6.3 22 Sudoeste 37 Oeste 0.2 -- -- 94
2019-11-03 07:00:00 6.1 25 Oeste 43 Oeste 0.2 -- -- 93
2019-11-03 06:00:00 6.1 28 Oeste 59 Oeste 0 -- -- 94
2019-11-03 05:00:00 6.5 25 Oeste 49 Sudoeste 1.4 -- -- 96
2019-11-03 04:00:00 7.2 31 Oeste 62 Oeste 0.8 -- -- 94
2019-11-03 03:00:00 8 38 Oeste 81 Oeste 0.8 -- -- 92
2019-11-03 02:00:00 10.4 62 Oeste 108 Oeste 2.8 -- -- 95
2019-11-03 01:00:00 10.4 41 Sudoeste 80 Sudoeste 1 -- -- 97
2019-11-03 00:00:00 9.8 49 Sudoeste 70 Sudoeste 0.4 -- -- 97
2019-11-02 23:00:00 9.2 46 Sudoeste 73 Sudoeste 0.6 -- -- 96
2019-11-02 22:00:00 8.8 42 Sudoeste 73 Sur 0.6 -- -- 95
2019-11-02 21:00:00 9.2 43 Sudoeste 71 Sudoeste 0 -- -- 89
2019-11-02 20:00:00 9.1 37 Sudoeste 68 Sudoeste 1.2 -- -- 92
2019-11-02 19:00:00 9.6 36 Sudoeste 63 Sudoeste 0.6 -- -- 93
2019-11-02 18:00:00 9.9 36 Sudoeste 62 Oeste 0.6 -- -- 94
2019-11-02 17:00:00 9.8 31 Sudoeste 56 Sudoeste 0.8 -- -- 93
2019-11-02 16:00:00 10.6 31 Sudoeste 51 Sudoeste 0 -- -- 84
2019-11-02 15:00:00 10.3 32 Sudoeste 59 Sudoeste 0 -- -- 87
2019-11-02 14:00:00 10 28 Sudoeste 62 Sudoeste 0 -- -- 92
2019-11-02 13:00:00 10.5 26 Oeste 63 Oeste 0.2 -- -- 91
2019-11-02 12:00:00 10.6 35 Sudoeste 59 Sudoeste 0.6 -- -- 94
2019-11-02 11:00:00 10.1 14 Sudoeste 44 Sudoeste 0.4 -- -- 97
2019-11-02 10:00:00 10.5 26 Sudoeste 52 Sudoeste 0 -- -- 93
2019-11-02 09:00:00 10.5 33 Sudoeste 68 Oeste 0 -- -- 91
2019-11-02 08:00:00 10.6 32 Sudoeste 68 Sudoeste 0.2 -- -- 93
2019-11-02 07:00:00 10.8 22 Sudoeste 40 Oeste 0.2 -- -- 96
2019-11-02 06:00:00 10.9 26 Sudoeste 51 Oeste 0 -- -- 91
2019-11-02 05:00:00 11.9 25 Oeste 47 Sudoeste 0 -- -- 93
2019-11-02 04:00:00 12.3 22 Oeste 51 Oeste 0 -- -- 96
2019-11-02 03:00:00 12.9 31 Oeste 56 Oeste 0.2 -- -- 93
2019-11-02 02:00:00 13.2 30 Sudoeste 62 Sudoeste 0.2 -- -- 95
2019-11-02 01:00:00 13.3 32 Sudoeste 53 Sudoeste 0.8 -- -- 95
2019-11-02 00:00:00 13.6 31 Sudoeste 60 Sudoeste 0 -- -- 93
2019-11-01 23:00:00 13.5 23 Sudoeste 59 Oeste 0.4 -- -- 93
2019-11-01 22:00:00 13.6 25 Sudoeste 46 Oeste 1 -- -- 96
2019-11-01 21:00:00 13.7 26 Sudoeste 60 Sudoeste 4 -- -- 95
2019-11-01 20:00:00 13.8 27 Sudoeste 58 Sudoeste 2.6 -- -- 93
2019-11-01 19:00:00 14.2 26 Sudoeste 62 Sudoeste 0.2 -- -- 93
2019-11-01 18:00:00 14.6 27 Oeste 69 Oeste 0.4 -- -- 91
2019-11-01 17:00:00 14.7 25 Sudoeste 51 Sudoeste 0.8 -- -- 95
2019-11-01 16:00:00 14.8 27 Sudoeste 59 Sudoeste 3.8 -- -- 94
2019-11-01 15:00:00 15.3 26 Sudoeste 62 Sudoeste 2.4 -- -- 93
2019-11-01 14:00:00 15.6 18 Sudoeste 46 Oeste 0.6 -- -- 92
2019-11-01 13:00:00 15.6 28 Sudoeste 59 Oeste 0.4 -- -- 92
2019-11-01 12:00:00 15.4 25 Sudoeste 55 Sudoeste 1.4 -- -- 95
2019-11-01 11:00:00 15.5 27 Sudoeste 50 Sudoeste 2.6 -- -- 95
2019-11-01 10:00:00 15.5 34 Sudoeste 50 Sudoeste 0.6 -- -- 94
2019-11-01 09:00:00 15.7 29 Sudoeste 50 Oeste 0 -- -- 92
2019-11-01 08:00:00 15.6 29 Sudoeste 47 Sudoeste 0.2 -- -- 93
2019-11-01 07:00:00 15.3 26 Sudoeste 40 Sudoeste 0.6 -- -- 94
2019-11-01 06:00:00 15.6 18 Sudoeste 46 Sudoeste 0 -- -- 92
2019-11-01 05:00:00 15.6 25 Sudoeste 50 Sudoeste 0.2 -- -- 92
2019-11-01 04:00:00 15.4 23 Sudoeste 54 Sudoeste 3.8 -- -- 95
2019-11-01 03:00:00 15.3 24 Sudoeste 46 Sudoeste 2.4 -- -- 95
2019-11-01 02:00:00 15.8 31 Sudoeste 44 Sudoeste 0 -- -- 93
2019-11-01 01:00:00 15.7 30 Sudoeste 43 Sur 0 -- -- 93
2019-11-01 00:00:00 15.7 18 Sudoeste 39 Sudoeste 0.8 -- -- 95
2019-10-31 23:00:00 15.8 18 Sudoeste 42 Sudoeste 0.2 -- -- 95
2019-10-31 22:00:00 15.6 28 Sudoeste 43 Sudoeste 1 -- -- 95
2019-10-31 21:00:00 15.7 18 Sudoeste 31 Sudoeste 0.2 -- -- 93
2019-10-31 20:00:00 15.6 15 Sudoeste 44 Sudoeste 0 -- -- 93
2019-10-31 19:00:00 15.6 22 Sudoeste 35 Sudoeste 0 -- -- 94
2019-10-31 18:00:00 15.5 22 Sudoeste 34 Sudoeste 0 -- -- 93
2019-10-31 17:00:00 15.3 5 Sudeste 28 Sudoeste 1.2 -- -- 92
2019-10-31 16:00:00 17.1 19 Sudoeste 32 Sudoeste 0 -- -- 76
2019-10-31 15:00:00 17.5 12 Sudoeste 27 Sudoeste 0 -- -- 75
2019-10-31 14:00:00 18 17 Sudoeste 31 Sur 0 -- -- 72
2019-10-31 13:00:00 16.7 13 Sudoeste 31 Sudoeste 0 -- -- 75
2019-10-31 12:00:00 16.5 10 Sur 28 Sudoeste 0 -- -- 73
2019-10-31 11:00:00 14.8 4 Sudeste 9 Sudeste 0 -- -- 85
2019-10-31 10:00:00 13.8 6 Este 13 Sudeste 0 -- -- 88
2019-10-31 09:00:00 13.6 4 Sudeste 11 Este 0 -- -- 88
2019-10-31 08:00:00 13.6 0 Calma 15 Sudoeste 0 -- -- 88
2019-10-31 07:00:00 13.6 7 Sudoeste 12 Sudoeste 0 -- -- 88
2019-10-31 06:00:00 13.6 9 Sudoeste 20 Oeste 0 -- -- 88
2019-10-31 05:00:00 13.5 15 Sudoeste 27 Sudoeste 0 -- -- 89
2019-10-31 04:00:00 13.5 14 Sudoeste 23 Sudoeste 0 -- -- 89
2019-10-31 03:00:00 13.6 14 Sudoeste 29 Sudoeste 0 -- -- 90
2019-10-31 02:00:00 13.7 14 Sudoeste 37 Sudoeste 0 -- -- 90
2019-10-31 01:00:00 13.7 11 Sudoeste 34 Sudoeste 0 -- -- 91
2019-10-31 00:00:00 14 11 Oeste 36 Oeste 0 -- -- 92
2019-10-30 23:00:00 14.1 12 Oeste 23 Oeste 0 -- -- 92
2019-10-30 22:00:00 14.3 13 Sudoeste 27 Sudoeste 0 -- -- 90
2019-10-30 21:00:00 14.1 9 Sudoeste 22 Sudoeste 0 -- -- 93
2019-10-30 20:00:00 14.2 9 Sudoeste 36 Sudoeste 0 -- -- 91
2019-10-30 19:00:00 14.7 24 Oeste 45 Sudoeste 4.8 -- -- 93
2019-10-30 18:00:00 15.2 5 Sudoeste 23 Sudoeste 3.4 -- -- 94
2019-10-30 17:00:00 15.5 15 Sudoeste 24 Sudoeste 0.2 -- -- 91
2019-10-30 16:00:00 16.6 9 Sudoeste 24 Sudoeste 0 -- -- 84
2019-10-30 15:00:00 16.3 10 Sur 34 Sur 0.2 -- -- 83
2019-10-30 14:00:00 16.2 16 Sudoeste 27 Sudoeste 0.2 -- -- 85
2019-10-30 13:00:00 16.5 10 Sur 35 Sudoeste 0 -- -- 81
2019-10-30 12:00:00 16.2 24 Sudoeste 43 Sur 0.2 -- -- 80
2019-10-30 11:00:00 17.4 15 Sur 28 Sudeste 0 -- -- 66
2019-10-30 10:00:00 15.7 8 Sudoeste 18 Sudeste 0 -- -- 75
2019-10-30 09:00:00 15.7 15 Sudeste 28 Sur 0 -- -- 74
2019-10-30 08:00:00 15.4 11 Sudoeste 28 Sudoeste 0 -- -- 76
2019-10-30 07:00:00 15.9 9 Sur 28 Sur 0 -- -- 71
2019-10-30 06:00:00 15.9 16 Sur 26 Sur 0 -- -- 72
2019-10-30 05:00:00 15.6 12 Sur 26 Sudeste 0 -- -- 73
2019-10-30 04:00:00 15.3 13 Sur 28 Sudoeste 0 -- -- 75
2019-10-30 03:00:00 15.1 10 Sudeste 16 Este 0 -- -- 76
2019-10-30 02:00:00 14.9 4 Este 13 Oeste 0 -- -- 77
2019-10-30 01:00:00 14.5 11 Sudoeste 19 Sudoeste 0 -- -- 82
2019-10-30 00:00:00 15.4 0 Calma 16 Sudeste 0 -- -- 76
2019-10-29 23:00:00 14.9 7 Sudeste 12 Sudeste 0 -- -- 78
2019-10-29 22:00:00 14.2 8 Oeste 12 Sudoeste 0 -- -- 82
2019-10-29 21:00:00 14.7 10 Sudoeste 29 Sudoeste 0 -- -- 81
2019-10-29 20:00:00 15.9 17 Sudoeste 39 Sudoeste 0 -- -- 75
2019-10-29 19:00:00 15.7 6 Sudoeste 23 Sudoeste 0 -- -- 76
2019-10-29 18:00:00 16.6 7 Oeste 22 Sudoeste 0 -- -- 69
2019-10-29 17:00:00 17.8 4 Oeste 9 Oeste 0 -- -- 64
2019-10-29 16:00:00 17.7 3 Sudoeste 17 Oeste 0 -- -- 60
2019-10-29 15:00:00 18.9 10 Sudoeste 27 Sudoeste 0 -- -- 55
2019-10-29 14:00:00 17.8 17 Sudoeste 40 Sudoeste 0 -- -- 56
2019-10-29 13:00:00 17.1 14 Sur 34 Sudoeste 0 -- -- 62
2019-10-29 12:00:00 16.6 17 Sudoeste 34 Sudoeste 0 -- -- 63
2019-10-29 11:00:00 16.8 15 Sur 31 Sur 0 -- -- 63
2019-10-29 10:00:00 14.7 15 Sudoeste 36 Sudoeste 0 -- -- 74
2019-10-29 09:00:00 13.8 18 Sudoeste 30 Sudoeste 0 -- -- 78
2019-10-29 08:00:00 13.1 12 Sudoeste 18 Sudoeste 0 -- -- 78
2019-10-29 07:00:00 13.4 9 Sudoeste 19 Sur 0 -- -- 80
2019-10-29 06:00:00 13.2 10 Sudoeste 26 Sur 0 -- -- 84
2019-10-29 05:00:00 13.6 15 Sudoeste 43 Sudoeste 0 -- -- 83
2019-10-29 04:00:00 14.7 19 Sudoeste 38 Sudoeste 0 -- -- 81
2019-10-29 03:00:00 15.8 14 Sudoeste 30 Sudoeste 0 -- -- 72
2019-10-29 02:00:00 15.6 9 Sur 17 Sur 0 -- -- 73
2019-10-29 01:00:00 15.5 6 Sudoeste 23 Sur 0 -- -- 73
2019-10-29 00:00:00 16 14 Sur 28 Sur 0 -- -- 71
2019-10-28 23:00:00 15.8 18 Sur 26 Sur 0 -- -- 72
2019-10-28 22:00:00 15.5 14 Sudoeste 28 Sur 0 -- -- 77
2019-10-28 21:00:00 15.8 9 Sur 22 Sur 0 -- -- 76
2019-10-28 20:00:00 15.8 14 Sur 27 Sur 0 -- -- 79
2019-10-28 19:00:00 15.2 16 Sur 42 Sudoeste 0 -- -- 84
2019-10-28 18:00:00 16 31 Sudoeste 41 Oeste 0 -- -- 82
2019-10-28 17:00:00 18.4 12 Sur 26 Sudoeste 0 -- -- 64
2019-10-28 16:00:00 18.9 15 Sudoeste 35 Sudoeste 0 -- -- 63
2019-10-28 15:00:00 19.2 11 Sur 28 Sudoeste 0 -- -- 62
2019-10-28 14:00:00 18.9 24 Sudoeste 36 Sudoeste 0 -- -- 62
2019-10-28 13:00:00 20 19 Sudoeste 37 Sur 0 -- -- 57
2019-10-28 12:00:00 19.4 19 Sur 30 Sudoeste 0 -- -- 53
2019-10-28 11:00:00 17 0 Calma 16 Oeste 0 -- -- 61
2019-10-28 10:00:00 15.9 9 Oeste 14 Oeste 0 -- -- 64
2019-10-28 09:00:00 14.3 4 Noroeste 14 Oeste 0 -- -- 67
2019-10-28 08:00:00 13 9 Noroeste 13 Oeste 0 -- -- 67
2019-10-28 07:00:00 13.4 0 Calma 8 Nordeste 0 -- -- 64
2019-10-28 06:00:00 12.7 8 Oeste 13 Oeste 0 -- -- 69
2019-10-28 05:00:00 13.7 0 Calma 6 Nordeste 0 -- -- 65
2019-10-28 04:00:00 13.3 3 Nordeste 27 Sudoeste 0 -- -- 70
2019-10-28 03:00:00 13.6 13 Oeste 24 Sudoeste 0 -- -- 67
2019-10-28 02:00:00 15 6 Sudeste 11 Oeste 0 -- -- 59
2019-10-28 01:00:00 14.2 8 Oeste 11 Oeste 0 -- -- 65
2019-10-28 00:00:00 14.6 0 Calma 6 Norte 0 -- -- 66
2019-10-27 23:00:00 14.7 0 Calma 0 Calma 0 -- -- 66
2019-10-27 22:00:00 14.3 0 Calma 15 Sudoeste 0 -- -- 66
2019-10-27 21:00:00 14.8 9 Oeste 19 Oeste 0 -- -- 65
2019-10-27 20:00:00 16.8 12 Este 17 Sudeste 0 -- -- 56
2019-10-27 19:00:00 16.5 10 Este 15 Este 0 -- -- 62
2019-10-27 18:00:00 17.2 3 Sudoeste 13 Oeste 0 -- -- 60
2019-10-27 17:00:00 18.1 4 Oeste 15 Sudoeste 0 -- -- 58
2019-10-27 16:00:00 19 10 Sur 29 Sudoeste 0 -- -- 47
2019-10-27 15:00:00 19.1 6 Oeste 12 Oeste 0 -- -- 52
2019-10-27 14:00:00 18.4 4 Este 13 Oeste 0 -- -- 52
2019-10-27 13:00:00 19.2 6 Oeste 15 Oeste 0 -- -- 56
2019-10-27 12:00:00 17.2 3 Oeste 10 Oeste 0 -- -- 58
2019-10-27 11:00:00 16.1 0 Calma 10 Oeste 0 -- -- 58
2019-10-27 10:00:00 15.4 12 Oeste 15 Oeste 0 -- -- 59
2019-10-27 09:00:00 15.5 3 Sur 14 Sudeste 0 -- -- 55
2019-10-27 08:00:00 15.4 0 Calma 9 Sudeste 0 -- -- 55
2019-10-27 07:00:00 15.5 4 Este 12 Sudeste 0 -- -- 55
2019-10-27 06:00:00 15.8 7 Sudeste 14 Sudeste 0 -- -- 54
2019-10-27 05:00:00 16 4 Sudeste 8 Sudeste 0 -- -- 53
2019-10-27 04:00:00 15.1 5 Nordeste 8 Este 0 -- -- 53
2019-10-27 03:00:00 15.4 3 Noroeste 10 Este 0 -- -- 53
2019-10-27 02:00:00 16 3 Este 16 Sudeste 0 -- -- 51
2019-10-27 01:00:00 16.4 4 Oeste 23 Sudeste 0 -- -- 46
2019-10-27 00:00:00 16.6 2 Sudoeste 12 Oeste 0 -- -- 44
2019-10-26 23:00:00 16.9 4 Sudoeste 13 Sudeste 0 -- -- 42
2019-10-26 22:00:00 16.6 5 Oeste 16 Sudoeste 0 -- -- 45
2019-10-26 21:00:00 17.9 9 Sur 24 Sur 0 -- -- 42
2019-10-26 20:00:00 19 10 Sur 22 Sur 0 -- -- 38
2019-10-26 19:00:00 20.1 15 Sur 28 Sur 0 -- -- 36
2019-10-26 18:00:00 21.5 21 Sudoeste 36 Sudoeste 0 -- -- 32
2019-10-26 17:00:00 22.2 23 Sudoeste 47 Sudoeste 0 -- -- 31
2019-10-26 16:00:00 22.6 20 Sudoeste 45 Sudoeste 0 -- -- 31
2019-10-26 15:00:00 22.2 25 Sudoeste 46 Sudoeste 0 -- -- 31
2019-10-26 14:00:00 22 20 Sur 44 Sudoeste 0 -- -- 29
2019-10-26 13:00:00 21.6 24 Sudoeste 53 Sur 0 -- -- 26
2019-10-26 12:00:00 21.4 11 Sur 36 Sur 0 -- -- 30
2019-10-26 11:00:00 19.3 10 Sudeste 27 Sudeste 0 -- -- 36
2019-10-26 10:00:00 17.5 18 Sur 34 Sudeste 0 -- -- 37
2019-10-26 09:00:00 17 20 Sur 31 Sudeste 0 -- -- 35
2019-10-26 08:00:00 16.5 11 Sur 29 Sudeste 0 -- -- 39
2019-10-26 07:00:00 17.6 21 Sur 36 Sudeste 0 -- -- 36
2019-10-26 06:00:00 16.3 15 Sur 32 Sudoeste 0 -- -- 39
2019-10-26 05:00:00 17.2 18 Sur 41 Sur 0 -- -- 37
2019-10-26 04:00:00 15.9 14 Sudeste 26 Sur 0 -- -- 47
2019-10-26 03:00:00 15.6 12 Sudeste 22 Sudeste 0 -- -- 48
2019-10-26 02:00:00 14.6 8 Sur 19 Sudeste 0 -- -- 53
2019-10-26 01:00:00 15.5 13 Sudeste 26 Sudeste 0 -- -- 53
2019-10-26 00:00:00 15.9 16 Sudeste 31 Sur 0 -- -- 52
2019-10-25 23:00:00 15.9 24 Sur 32 Sudeste 0 -- -- 53
2019-10-25 22:00:00 15.8 22 Sur 28 Sur 0 -- -- 51
2019-10-25 21:00:00 15 13 Sur 26 Sur 0 -- -- 52
2019-10-25 20:00:00 15.8 9 Sur 14 Sur 0 -- -- 48
2019-10-25 19:00:00 17.7 13 Sur 30 Sur 0 -- -- 44
2019-10-25 18:00:00 19 18 Sudoeste 37 Sudoeste 0 -- -- 44
2019-10-25 17:00:00 19.8 17 Sudoeste 47 Sudoeste 0 -- -- 42
2019-10-25 16:00:00 19.8 12 Sur 41 Sudoeste 0 -- -- 39
2019-10-25 15:00:00 19 15 Sudoeste 30 Sudoeste 0 -- -- 42
2019-10-25 14:00:00 18.1 18 Sudoeste 35 Sudoeste 0 -- -- 45
2019-10-25 13:00:00 16.2 8 Sudoeste 14 Sudoeste 0 -- -- 59
2019-10-25 12:00:00 13.8 5 Oeste 11 Oeste 0 -- -- 72
2019-10-25 11:00:00 12.2 8 Oeste 15 Oeste 0 -- -- 82
2019-10-25 10:00:00 10 6 Oeste 17 Noroeste 0 -- -- 87
2019-10-25 09:00:00 9.4 4 Oeste 19 Sudoeste 0 -- -- 82
2019-10-25 08:00:00 8.8 13 Oeste 19 Sudoeste 0 -- -- 86
2019-10-25 07:00:00 9.5 2 Noroeste 11 Oeste 0 -- -- 82
2019-10-25 06:00:00 9.2 6 Oeste 12 Oeste 0 -- -- 85
2019-10-25 05:00:00 9.2 8 Oeste 13 Oeste 0 -- -- 87
2019-10-25 04:00:00 9.4 2 Sudoeste 20 Sudoeste 0 -- -- 91
2019-10-25 03:00:00 9.1 14 Sudoeste 22 Sudoeste 0 -- -- 94
2019-10-25 02:00:00 9.6 4 Sudoeste 23 Sudoeste 0 -- -- 94
2019-10-25 01:00:00 9.9 19 Sudoeste 25 Sudoeste 0 -- -- 95
2019-10-25 00:00:00 10.9 3 Noroeste 14 Sudeste 0 -- -- 93
2019-10-24 23:00:00 11.1 7 Sur 26 Sudoeste 0 -- -- 93
2019-10-24 22:00:00 11 14 Sudoeste 31 Sudoeste 0 -- -- 94
2019-10-24 21:00:00 11.4 19 Sudoeste 36 Sudoeste 0 -- -- 93
2019-10-24 20:00:00 11.5 20 Sudoeste 33 Sudoeste 0 -- -- 95
2019-10-24 19:00:00 11.7 17 Sudoeste 34 Sudoeste 0 -- -- 95
2019-10-24 18:00:00 11.8 21 Sudoeste 36 Sudoeste 0 -- -- 96
2019-10-24 17:00:00 11.8 22 Sudoeste 41 Sudoeste 0 -- -- 96
2019-10-24 16:00:00 11.9 20 Sudoeste 33 Sudoeste 0.2 -- -- 96
2019-10-24 15:00:00 11.7 23 Sudoeste 36 Sudoeste 0 -- -- 95
2019-10-24 14:00:00 11.5 21 Sudoeste 36 Sudoeste 0.2 -- -- 95
2019-10-24 13:00:00 10.9 16 Sudoeste 40 Sudoeste 0.2 -- -- 97
2019-10-24 12:00:00 10.5 19 Sudoeste 38 Sudoeste 1.2 -- -- 97
2019-10-24 11:00:00 10.2 19 Sudoeste 40 Sudoeste 1.2 -- -- 96
2019-10-24 10:00:00 9.6 17 Sudoeste 40 Sudoeste 0.6 -- -- 97
2019-10-24 09:00:00 8.9 22 Sudoeste 31 Sudoeste 0.6 -- -- 97
2019-10-24 08:00:00 7.4 5 Este 15 Este 0 -- -- 97
2019-10-24 07:00:00 7.3 5 Este 12 Este 0.2 -- -- 96
2019-10-24 06:00:00 7.4 6 Sudeste 27 Sudoeste 0 -- -- 93
2019-10-24 05:00:00 7.8 16 Sudoeste 32 Sudoeste 0 -- -- 87
2019-10-24 04:00:00 7.6 19 Sudoeste 32 Sudoeste 0 -- -- 90
2019-10-24 03:00:00 7.7 9 Sudoeste 28 Sudoeste 0 -- -- 92
2019-10-24 02:00:00 7.5 15 Sudoeste 23 Sudoeste 0 -- -- 92
2019-10-24 01:00:00 7.1 10 Sudoeste 15 Sudoeste 0 -- -- 94
2019-10-24 00:00:00 6.7 9 Sudoeste 19 Sudoeste 0 -- -- 95
2019-10-23 23:00:00 6.3 8 Oeste 10 Oeste 0 -- -- 93
2019-10-23 22:00:00 7.7 6 Oeste 10 Noroeste 0 -- -- 89
2019-10-23 21:00:00 7.9 0 Calma 5 Sudoeste 0 -- -- 88
2019-10-23 20:00:00 8 3 Oeste 12 Noroeste 0 -- -- 89
2019-10-23 19:00:00 8.5 6 Noroeste 10 Oeste 0 -- -- 88
2019-10-23 18:00:00 9.1 4 Noroeste 12 Noroeste 0 -- -- 84
2019-10-23 17:00:00 8.9 5 Noroeste 19 Noroeste 0 -- -- 84
2019-10-23 16:00:00 8.4 9 Noroeste 21 Oeste 0 -- -- 88
2019-10-23 15:00:00 8.9 9 Noroeste 17 Noroeste 0 -- -- 88
2019-10-23 14:00:00 8.8 4 Nordeste 14 Noroeste 0 -- -- 90
2019-10-23 13:00:00 8.3 5 Noroeste 14 Noroeste 0 -- -- 96
2019-10-23 12:00:00 7.6 4 Oeste 7 Sudeste 0 -- -- 95
2019-10-23 11:00:00 7.6 6 Este 13 Norte 0.2 -- -- 95
2019-10-23 10:00:00 8.1 9 Norte 28 Nordeste 0 -- -- 87
2019-10-23 09:00:00 8.1 18 Nordeste 39 Nordeste 0 -- -- 86
2019-10-23 08:00:00 7.7 19 Nordeste 40 Nordeste 0 -- -- 88
2019-10-23 07:00:00 7.7 15 Nordeste 27 Nordeste 0 -- -- 90
2019-10-23 06:00:00 7.9 9 Norte 29 Nordeste 0 -- -- 90
2019-10-23 05:00:00 7.8 15 Nordeste 25 Nordeste 0 -- -- 92
2019-10-23 04:00:00 7.9 8 Norte 29 Nordeste 0.2 -- -- 95
2019-10-23 03:00:00 7.9 7 Norte 19 Norte 0 -- -- 96
2019-10-23 02:00:00 7.7 5 Noroeste 14 Noroeste 0 -- -- 97
2019-10-23 01:00:00 7.8 4 Oeste 18 Nordeste 0.6 -- -- 98
2019-10-23 00:00:00 7.9 5 Norte 15 Oeste 0.2 -- -- 96
2019-10-22 23:00:00 7.9 6 Noroeste 21 Noroeste 0 -- -- 94
2019-10-22 22:00:00 7.8 3 Oeste 18 Norte 0 -- -- 91
2019-10-22 21:00:00 8 5 Noroeste 17 Nordeste 0 -- -- 88
2019-10-22 20:00:00 8.4 13 Nordeste 26 Nordeste 0.2 -- -- 89
2019-10-22 19:00:00 9.3 8 Nordeste 29 Nordeste 0 -- -- 80
2019-10-22 18:00:00 10.4 12 Nordeste 40 Nordeste 0 -- -- 78
2019-10-22 17:00:00 11.6 19 Nordeste 37 Nordeste 0 -- -- 67
2019-10-22 16:00:00 11.5 18 Nordeste 33 Nordeste 0 -- -- 71
2019-10-22 15:00:00 11.6 15 Nordeste 25 Nordeste 0 -- -- 76
2019-10-22 14:00:00 10.9 15 Nordeste 23 Nordeste 0 -- -- 82
2019-10-22 13:00:00 9 6 Noroeste 15 Norte 0 -- -- 91
2019-10-22 12:00:00 7.5 5 Norte 10 Sudoeste 0 -- -- 94
2019-10-22 11:00:00 5.8 0 Calma 8 Nordeste 0 -- -- 99
2019-10-22 10:00:00 3.9 0 Calma 8 Este 0 -- -- 99
2019-10-22 09:00:00 2.7 5 Nordeste 13 Oeste 0 -- -- 97
2019-10-22 08:00:00 3.2 2 Noroeste 14 Sudeste 0 -- -- 97
2019-10-22 07:00:00 3.5 9 Este 13 Sudeste 0 -- -- 97
2019-10-22 06:00:00 3 7 Este 11 Este 0 -- -- 99
2019-10-22 05:00:00 3.6 4 Este 6 Este 0 -- -- 98
2019-10-22 04:00:00 4.1 0 Calma 6 Este 0 -- -- 97
2019-10-22 03:00:00 4.7 4 Norte 5 Norte 0 -- -- 97
2019-10-22 02:00:00 5 4 Norte 6 Este 0 -- -- 97
2019-10-22 01:00:00 5.2 4 Este 11 Este 0 -- -- 96
2019-10-22 00:00:00 5.7 8 Este 12 Sudeste 0 -- -- 96